logo tempoitalia

Diretta Meteo Praha-Ruzyne, Repubblica Cecalunedì 31 agosto ore 07:00

Mappa
Sereno 17 °C Sereno 24 Ore: T.min 16 T.max 26
Ponente Sud/Sud-Est Km/h 7.4 Punto di rugiada: 14 °C Umidità: 82% Visibilità: 10 Km
Il sole sorge alle: 06:16 Il sole tramonta alle: 19:50
31 Agosto 2026 07:00 tempo osservato: Sereno Sereno 17 82 1014 vento: Nord S/SE 7.4
31 Agosto 2026 06:30 tempo osservato: Sereno Sereno 17 82 1014 vento: Nord S 7.4
31 Agosto 2026 06:00 tempo osservato: Sereno Sereno 17 82 1014 vento: Nord SE 11.1
31 Agosto 2026 05:30 tempo osservato: Sereno Sereno 16 87 1014 vento: Nord SE 11.1
31 Agosto 2026 05:00 tempo osservato: Sereno Sereno 16 87 1014 vento: Nord N 5.5
31 Agosto 2026 04:30 tempo osservato: Sereno Sereno 17 82 1015 vento: Nord S 9.3
31 Agosto 2026 04:00 tempo osservato: Sereno Sereno 17 77 1015 vento: Nord S/SO 11.1
31 Agosto 2026 03:30 tempo osservato: Sereno Sereno 17 77 1015 vento: Nord S/SO 9.3
31 Agosto 2026 03:00 tempo osservato: Sereno Sereno 17 77 1015 vento: Nord S/SO 9.3
31 Agosto 2026 02:30 tempo osservato: Sereno Sereno 17 77 1015 vento: Nord S/SO 13
31 Agosto 2026 02:00 tempo osservato: Sereno Sereno 16 82 1015 vento: Nord S/SO 11.1
31 Agosto 2026 01:30 tempo osservato: Sereno Sereno 17 77 1015 vento: Nord S/SO 11.1
31 Agosto 2026 01:00 tempo osservato: Sereno Sereno 18 77 1015 vento: Nord S/SO 14.8
31 Agosto 2026 00:30 tempo osservato: Sereno Sereno 18 72 1015 vento: Nord S 13
31 Agosto 2026 00:00 tempo osservato: Sereno Sereno 18 72 1015 vento: Nord S 7.4
30 Agosto 2026 23:30 tempo osservato: Sereno Sereno 19 68 1015 vento: Nord S 11.1
30 Agosto 2026 23:00 tempo osservato: Sereno Sereno 19 63 1015 vento: Nord S 13
30 Agosto 2026 22:30 tempo osservato: Sereno Sereno 19 68 1015 vento: Nord S/SO 13
30 Agosto 2026 22:00 tempo osservato: Sereno Sereno 19 68 1015 vento: Nord S/SO 11.1
30 Agosto 2026 21:30 tempo osservato: Sereno Sereno 21 60 1015 vento: Nord O/SO 13
30 Agosto 2026 21:00 tempo osservato: Sereno Sereno 21 60 1015 vento: Nord SO 13
30 Agosto 2026 20:30 tempo osservato: Sereno Sereno 21 60 1015 vento: Nord SO 13
30 Agosto 2026 20:00 tempo osservato: Sereno Sereno 22 56 1014 vento: Nord S/SO 13
30 Agosto 2026 19:30 tempo osservato: Sereno Sereno 23 53 1014 vento: Nord S/SO 14.8
30 Agosto 2026 19:00 tempo osservato: Sereno Sereno 24 50 1014 vento: Nord S/SO 16.7
30 Agosto 2026 18:30 tempo osservato: Sereno Sereno 25 44 1014 vento: Nord SO 18.5
30 Agosto 2026 18:00 tempo osservato: Sereno Sereno 26 41 1014 vento: Nord SO 24
30 Agosto 2026 17:30 tempo osservato: Sereno Sereno 25 44 1014 vento: Nord SO 18.5
30 Agosto 2026 17:00 tempo osservato: Sereno Sereno 26 39 1014 vento: Nord S/SO 22.2
30 Agosto 2026 16:30 tempo osservato: Sereno Sereno 26 39 1014 vento: Nord SO 18.5
30 Agosto 2026 16:00 tempo osservato: Sereno Sereno 26 39 1014 vento: Nord S/SO 20.3
30 Agosto 2026 15:30 tempo osservato: Sereno Sereno 26 41 1015 vento: Nord O/SO 20.3
30 Agosto 2026 15:00 tempo osservato: Sereno Sereno 26 41 1015 vento: Nord S/SO 31.5
30 Agosto 2026 14:30 tempo osservato: Sereno Sereno 26 41 1015 vento: Nord S/SO 22.2
30 Agosto 2026 14:00 tempo osservato: Sereno Sereno 25 47 1015 vento: Nord SO 22.2
30 Agosto 2026 13:30 tempo osservato: Sereno Sereno 25 47 1015 vento: Nord SO 31.5
30 Agosto 2026 13:00 tempo osservato: Sereno Sereno 25 47 1015 vento: Nord S/SO 29.6
30 Agosto 2026 12:30 tempo osservato: Sereno Sereno 24 50 1015 vento: Nord S/SO 33.3
30 Agosto 2026 12:00 tempo osservato: Nuvoloso Nuvoloso 24 50 1015 vento: Nord S/SO 29.6
30 Agosto 2026 11:30 tempo osservato: Poco Nuvoloso Poco Nuvoloso 24 50 1015 vento: Nord SO 27.8
30 Agosto 2026 11:00 tempo osservato: Poco Nuvoloso Poco Nuvoloso 23 53 1015 vento: Nord SO 25.9
30 Agosto 2026 10:30 tempo osservato: Poco Nuvoloso Poco Nuvoloso 22 56 1016 vento: Nord S/SO 33.3
30 Agosto 2026 10:00 tempo osservato: Poco Nuvoloso Poco Nuvoloso 21 60 1016 vento: Nord S/SO 22.2
30 Agosto 2026 09:30 tempo osservato: Sereno Sereno 21 60 1016 vento: Nord S/SO 24
30 Agosto 2026 09:00 tempo osservato: Sereno Sereno 20 64 1015 vento: Nord S/SO 25.9
30 Agosto 2026 08:30 tempo osservato: Sereno Sereno 20 64 1015 vento: Nord S 16.7
30 Agosto 2026 08:00 tempo osservato: Sereno Sereno 18 67 1015 vento: Nord S/SO 16.7